Time;durP1;ratioP1;P1;durP2;ratioP2;P2;SDS_P1;SDS_P2;PMS_P1;PMS_P2;Temp;Humidity;BMP_temperature;BMP_pressure;BME280_temperature;BME280_humidity;BME280_pressure;Samples;Min_cycle;Max_cycle;Signal;HPM_P1;HPM_P2
2022/07/30 00:01:47;;;;;;;13.60;8.50;;;;;;;20.37;51.21;99656.11;25151;1314;3027398;-68
2022/07/30 00:04:16;;;;;;;16.90;8.80;;;;;;;20.39;51.24;99656.25;25116;1314;3026812;-69
2022/07/30 00:06:45;;;;;;;18.30;9.30;;;;;;;20.40;51.23;99656.13;25125;1313;3048345;-71
2022/07/30 00:09:15;;;;;;;18.90;9.50;;;;;;;20.41;51.35;99660.13;25124;1315;3026509;-72
2022/07/30 00:11:46;;;;;;;20.80;9.90;;;;;;;20.40;51.36;99661.35;25142;1315;3070803;-68
2022/07/30 00:14:18;;;;;;;15.60;9.30;;;;;;;20.39;51.63;99659.08;25147;1314;3026878;-65
2022/07/30 00:16:47;;;;;;;20.50;9.50;;;;;;;20.42;51.45;99659.30;25138;1315;3028787;-67
2022/07/30 00:19:19;;;;;;;16.20;8.60;;;;;;;20.41;51.43;99658.70;25148;1313;3071262;-71
2022/07/30 00:21:48;;;;;;;22.20;9.00;;;;;;;20.39;51.46;99655.73;25127;1314;3026659;-67
2022/07/30 00:24:16;;;;;;;18.80;8.20;;;;;;;20.39;51.40;99656.83;25115;1315;3027011;-69
2022/07/30 00:26:45;;;;;;;15.30;8.20;;;;;;;20.38;51.41;99655.45;25110;1315;3069392;-68
2022/07/30 00:29:14;;;;;;;17.60;7.50;;;;;;;20.39;51.45;99655.41;25082;1315;3027233;-69
2022/07/30 00:31:44;;;;;;;14.40;6.60;;;;;;;20.37;51.34;99652.50;25069;1318;3052948;-69
2022/07/30 00:34:13;;;;;;;14.40;6.10;;;;;;;20.40;51.28;99652.26;25018;1316;3028307;-66
2022/07/30 00:36:42;;;;;;;11.70;5.90;;;;;;;20.41;51.24;99653.36;25118;1314;3054829;-71
2022/07/30 00:39:14;;;;;;;11.40;5.80;;;;;;;20.41;51.31;99653.59;25122;1315;3026611;-68
2022/07/30 00:41:54;;;;;;;13.70;6.20;;;;;;;20.39;51.29;99651.41;25107;1313;3028881;-71
2022/07/30 00:44:24;;;;;;;14.50;5.90;;;;;;;20.40;51.34;99649.55;25122;1314;3048605;-70
2022/07/30 00:46:55;;;;;;;15.60;6.60;;;;;;;20.38;51.58;99647.45;25127;1315;3026406;-69
2022/07/30 00:49:25;;;;;;;16.80;6.90;;;;;;;20.33;51.55;99640.13;25120;1313;3026817;-72
2022/07/30 00:51:56;;;;;;;20.80;7.00;;;;;;;20.32;51.64;99642.86;25098;1318;3030460;-70
2022/07/30 00:54:26;;;;;;;23.20;6.60;;;;;;;20.26;51.89;99638.48;25156;1315;3026881;-71
2022/07/30 00:56:55;;;;;;;24.40;6.40;;;;;;;20.26;51.77;99637.21;25137;1315;3026553;-69
2022/07/30 00:59:26;;;;;;;20.20;6.30;;;;;;;20.27;51.89;99633.55;25076;1316;3030087;-70
2022/07/30 01:02:00;;;;;;;15.10;5.90;;;;;;;20.33;51.59;99636.63;25107;1314;3053544;-69
2022/07/30 01:04:31;;;;;;;14.80;5.80;;;;;;;20.34;51.54;99633.77;25071;1315;3055616;-70
2022/07/30 01:07:00;;;;;;;13.20;5.10;;;;;;;20.34;51.46;99630.30;25111;1315;3026991;-71
2022/07/30 01:09:30;;;;;;;13.70;4.70;;;;;;;20.36;51.26;99629.69;25160;1314;3026797;-72
2022/07/30 01:11:59;;;;;;;12.90;4.50;;;;;;;20.38;51.14;99630.55;25074;1315;3027863;-73
2022/07/30 01:14:29;;;;;;;16.10;4.60;;;;;;;20.38;51.03;99630.09;25064;1315;3027232;-70
2022/07/30 01:16:59;;;;;;;16.10;5.20;;;;;;;20.36;51.03;99626.13;25083;1315;3027566;-72
2022/07/30 01:19:47;;;;;;;10.30;4.00;;;;;;;20.34;51.10;99628.29;25017;1317;3026845;-70
2022/07/30 01:22:29;;;;;;;14.30;4.30;;;;;;;20.35;50.63;99634.81;25085;1315;3052894;-72
2022/07/30 01:25:24;;;;;;;11.10;4.20;;;;;;;20.31;50.96;99635.86;25155;1315;3055867;-70
2022/07/30 01:28:27;;;;;;;10.50;3.50;;;;;;;20.28;51.02;99637.95;25047;1318;3049645;-69
2022/07/30 01:30:57;;;;;;;11.40;4.20;;;;;;;20.25;51.41;99636.30;25154;1315;3069109;-69
2022/07/30 01:33:26;;;;;;;8.40;3.80;;;;;;;20.18;51.47;99637.84;25191;1315;3026070;-71
2022/07/30 01:35:58;;;;;;;10.90;3.80;;;;;;;20.18;51.41;99639.29;25037;1315;3053202;-67
2022/07/30 01:38:27;;;;;;;9.70;3.40;;;;;;;20.16;51.57;99636.11;25083;1316;3026352;-74
2022/07/30 01:40:56;;;;;;;12.60;3.90;;;;;;;20.15;51.60;99631.22;25151;1315;3052605;-70
2022/07/30 01:43:25;;;;;;;9.70;3.60;;;;;;;20.13;51.49;99630.31;25144;1315;3026648;-73
2022/07/30 01:45:55;;;;;;;12.10;3.40;;;;;;;20.14;51.40;99630.09;25126;1316;3049158;-70
2022/07/30 01:48:25;;;;;;;11.70;3.70;;;;;;;20.13;51.38;99629.94;25112;1316;3026478;-71
2022/07/30 01:50:56;;;;;;;15.10;3.60;;;;;;;20.14;51.39;99627.78;25057;1320;3058256;-67
2022/07/30 01:53:26;;;;;;;8.30;3.50;;;;;;;20.12;51.34;99629.42;25116;1315;3028164;-69
2022/07/30 01:55:59;;;;;;;10.70;3.40;;;;;;;20.09;51.44;99631.27;25201;1315;3053284;-69
2022/07/30 01:58:30;;;;;;;8.80;3.50;;;;;;;20.06;51.57;99636.36;25110;1316;3027151;-69
2022/07/30 02:01:08;;;;;;;8.90;3.20;;;;;;;20.03;51.68;99634.00;25166;1315;3071783;-71
2022/07/30 02:03:38;;;;;;;11.80;3.70;;;;;;;20.02;51.92;99635.19;25061;1318;3026731;-73
2022/07/30 02:06:18;;;;;;;12.70;3.60;;;;;;;20.01;51.86;99638.45;25135;1315;3026016;-70
2022/07/30 02:08:55;;;;;;;10.10;4.20;;;;;;;19.99;52.26;99641.67;25082;1315;3054789;-72
2022/07/30 02:14:23;;;;;;;14.40;5.30;;;;;;;19.89;53.12;99632.52;25091;1315;3052276;-68
2022/07/30 02:16:56;;;;;;;14.10;5.90;;;;;;;19.84;53.17;99634.20;25105;1315;3055834;-69
2022/07/30 02:19:30;;;;;;;14.30;5.70;;;;;;;19.79;53.24;99635.95;25110;1318;3026234;-73
2022/07/30 02:22:08;;;;;;;13.10;5.80;;;;;;;19.79;52.98;99632.52;25063;1315;3068768;-68
2022/07/30 02:24:37;;;;;;;13.20;5.30;;;;;;;19.79;53.15;99634.53;25067;1315;3052626;-71
2022/07/30 02:27:29;;;;;;;13.80;5.00;;;;;;;19.75;52.92;99637.13;25045;1317;3026305;-69
2022/07/30 02:29:59;;;;;;;12.20;5.20;;;;;;;19.78;52.52;99636.55;25150;1315;3052846;-70
2022/07/30 02:32:32;;;;;;;11.70;5.30;;;;;;;19.70;53.10;99634.59;25032;1318;3026649;-69
2022/07/30 02:35:11;;;;;;;15.70;4.70;;;;;;;19.76;52.92;99634.61;25105;1315;3050101;-71
2022/07/30 02:37:42;;;;;;;15.50;5.10;;;;;;;19.78;53.02;99642.23;25134;1314;3053716;-61
2022/07/30 02:40:15;;;;;;;13.70;5.10;;;;;;;19.76;53.10;99643.84;24967;1318;3026802;-62
2022/07/30 02:42:45;;;;;;;11.10;5.10;;;;;;;19.79;52.99;99646.02;25031;1315;3026731;-61
2022/07/30 02:45:19;;;;;;;13.00;5.30;;;;;;;19.79;52.96;99649.38;24936;1317;3028847;-67
2022/07/30 02:47:51;;;;;;;12.70;5.10;;;;;;;19.85;52.85;99656.35;25143;1315;3030337;-65
2022/07/30 02:50:20;;;;;;;16.20;5.20;;;;;;;19.85;52.66;99657.20;25168;1316;3030576;-65
2022/07/30 02:52:50;;;;;;;10.20;5.20;;;;;;;19.88;52.56;99652.16;25062;1315;3026986;-66
2022/07/30 02:55:28;;;;;;;13.30;4.20;;;;;;;19.88;52.52;99649.11;25081;1315;3054991;-65
2022/07/30 02:57:57;;;;;;;10.30;4.10;;;;;;;19.90;52.19;99651.53;25120;1318;3026735;-62
2022/07/30 03:00:27;;;;;;;12.40;4.00;;;;;;;19.94;51.96;99650.16;25012;1317;3026180;-64
2022/07/30 03:03:00;;;;;;;12.70;4.10;;;;;;;19.95;51.86;99651.27;24992;1318;3027131;-65
2022/07/30 03:05:29;;;;;;;11.70;4.00;;;;;;;19.98;51.79;99647.80;25044;1318;3026803;-63
2022/07/30 03:07:58;;;;;;;14.90;4.00;;;;;;;20.01;51.58;99646.51;24975;1318;3056634;-61
2022/07/30 03:10:28;;;;;;;10.20;3.60;;;;;;;20.03;51.65;99647.17;25052;1318;3027153;-62
2022/07/30 03:13:04;;;;;;;7.30;3.90;;;;;;;20.05;51.38;99650.82;24976;1315;3053891;-63
2022/07/30 03:15:36;;;;;;;12.00;4.50;;;;;;;20.07;51.30;99653.45;25017;1318;3027564;-62
2022/07/30 03:18:07;;;;;;;13.80;4.10;;;;;;;20.08;51.19;99652.48;25067;1315;3026487;-62
2022/07/30 03:20:38;;;;;;;17.40;3.90;;;;;;;20.09;51.43;99656.51;25029;1318;3027377;-63
2022/07/30 03:23:07;;;;;;;7.90;3.80;;;;;;;20.10;51.31;99657.95;25084;1315;3026688;-62
2022/07/30 03:25:36;;;;;;;15.10;4.70;;;;;;;20.11;51.43;99661.86;24987;1315;3070638;-61
2022/07/30 03:28:12;;;;;;;12.00;3.50;;;;;;;20.17;51.18;99663.45;25039;1318;3053158;-61
2022/07/30 03:30:42;;;;;;;15.30;3.90;;;;;;;20.20;51.18;99660.45;25060;1315;3027649;-63
2022/07/30 03:33:13;;;;;;;12.40;4.30;;;;;;;20.23;51.17;99662.62;25069;1315;3027227;-62
2022/07/30 03:35:42;;;;;;;8.60;3.70;;;;;;;20.27;50.90;99663.84;25005;1315;3026557;-62
2022/07/30 03:38:12;;;;;;;10.40;3.90;;;;;;;20.29;51.08;99662.77;25032;1316;3054090;-61
2022/07/30 03:40:45;;;;;;;;;;;;;;;20.31;50.95;99662.20;25091;1315;3051925;-61
2022/07/30 03:43:14;;;;;;;17.70;3.80;;;;;;;20.30;51.06;99661.95;25014;1315;3026884;-61
2022/07/30 03:45:43;;;;;;;13.70;4.30;;;;;;;20.34;51.02;99663.00;25058;1315;3055023;-60
2022/07/30 03:48:14;;;;;;;11.60;4.40;;;;;;;20.39;50.70;99663.04;25072;1315;3027399;-62
2022/07/30 03:50:46;;;;;;;11.10;3.90;;;;;;;20.41;50.65;99659.45;25084;1315;3026726;-63
2022/07/30 03:53:15;;;;;;;10.70;3.60;;;;;;;20.45;50.45;99661.70;25002;1317;3026503;-59
2022/07/30 03:56:19;;;;;;;10.30;3.80;;;;;;;20.49;50.55;99661.27;25031;1318;3056437;-60
2022/07/30 03:59:12;;;;;;;19.10;3.80;;;;;;;20.54;50.50;99658.55;25024;1315;3053592;-63
2022/07/30 04:01:44;;;;;;;9.50;4.00;;;;;;;20.58;50.56;99659.85;25014;1316;3069068;-62
2022/07/30 04:04:46;;;;;;;14.50;4.30;;;;;;;20.65;50.52;99654.23;24968;1318;3051499;-63
2022/07/30 04:07:15;;;;;;;6.60;3.70;;;;;;;20.69;50.32;99655.96;25061;1315;3026530;-63
2022/07/30 04:09:44;;;;;;;14.50;4.40;;;;;;;20.74;50.30;99654.44;25041;1315;3027116;-64
2022/07/30 04:12:28;;;;;;;10.90;4.50;;;;;;;20.78;50.40;99655.27;25035;1315;3051500;-63
2022/07/30 04:14:58;;;;;;;13.80;4.60;;;;;;;20.81;50.52;99653.00;25076;1315;3026646;-63
2022/07/30 04:17:52;;;;;;;15.40;4.90;;;;;;;20.82;50.56;99653.41;25062;1315;3026747;-61
2022/07/30 04:20:33;;;;;;;13.40;4.80;;;;;;;20.91;50.04;99653.55;25037;1318;3061566;-62
2022/07/30 04:23:03;;;;;;;18.30;4.90;;;;;;;20.95;49.80;99653.70;25073;1315;3049870;-63
2022/07/30 04:25:32;;;;;;;14.60;5.30;;;;;;;20.92;49.82;99650.48;24924;1318;3026796;-62
2022/07/30 04:28:04;;;;;;;14.30;4.70;;;;;;;20.99;49.34;99655.98;24953;1318;3058855;-63
2022/07/30 04:30:34;;;;;;;13.50;4.30;;;;;;;21.10;48.98;99659.70;24998;1315;3026720;-62
2022/07/30 04:33:07;;;;;;;16.10;4.10;;;;;;;21.14;48.84;99659.84;25071;1315;3052335;-63
2022/07/30 04:36:08;;;;;;;16.10;4.50;;;;;;;21.21;48.78;99658.35;25084;1318;3054701;-60
2022/07/30 04:38:41;;;;;;;12.50;4.30;;;;;;;21.27;48.71;99660.59;25084;1315;3070903;-62
2022/07/30 04:41:11;;;;;;;15.80;4.50;;;;;;;21.34;48.72;99658.20;25067;1315;3026542;-61
2022/07/30 04:43:59;;;;;;;9.90;4.20;;;;;;;21.41;48.69;99659.35;25137;1315;3052725;-63
2022/07/30 04:46:28;;;;;;;13.60;4.50;;;;;;;21.44;48.91;99658.85;25121;1315;3026267;-62
2022/07/30 04:48:57;;;;;;;15.50;4.00;;;;;;;21.51;48.73;99662.45;25058;1315;3026571;-62
2022/07/30 04:51:32;;;;;;;11.10;3.80;;;;;;;21.59;48.33;99665.61;25107;1315;3054079;-62
2022/07/30 04:54:04;;;;;;;6.70;3.00;;;;;;;21.68;47.85;99660.77;24993;1315;3026494;-64
2022/07/30 04:56:33;;;;;;;12.00;3.30;;;;;;;21.74;47.79;99665.11;24982;1315;3028445;-64
2022/07/30 04:59:05;;;;;;;13.00;3.00;;;;;;;21.79;47.84;99663.36;25101;1315;3026542;-62
2022/07/30 05:01:37;;;;;;;10.60;3.20;;;;;;;21.81;47.74;99667.59;25071;1315;3026381;-65
2022/07/30 05:04:07;;;;;;;13.30;2.80;;;;;;;21.86;47.86;99663.75;25104;1315;3026843;-64
2022/07/30 05:06:38;;;;;;;15.80;2.90;;;;;;;21.92;47.91;99666.55;25103;1315;3049574;-61
2022/07/30 05:09:09;;;;;;;13.00;3.40;;;;;;;22.00;47.69;99666.69;25060;1315;3026921;-62
2022/07/30 05:11:50;;;;;;;10.20;2.90;;;;;;;22.09;47.97;99669.81;25028;1315;3054148;-62
2022/07/30 05:14:20;;;;;;;6.30;2.70;;;;;;;22.16;47.57;99671.77;25070;1315;3071880;-62
2022/07/30 05:16:50;;;;;;;7.80;2.90;;;;;;;22.22;47.49;99666.14;25083;1315;3026515;-61
2022/07/30 05:19:20;;;;;;;8.10;2.50;;;;;;;22.27;47.53;99669.09;25049;1315;3026771;-63
2022/07/30 05:21:50;;;;;;;10.80;2.50;;;;;;;22.30;47.37;99670.30;25083;1315;3027525;-62
2022/07/30 05:24:19;;;;;;;11.70;2.50;;;;;;;22.37;47.22;99668.98;25130;1315;3026399;-63
2022/07/30 05:26:57;;;;;;;9.40;2.40;;;;;;;22.47;47.55;99672.98;25114;1315;3048547;-64
2022/07/30 05:29:27;;;;;;;9.10;3.10;;;;;;;22.50;47.78;99668.60;25081;1315;3026816;-62
2022/07/30 05:32:02;;;;;;;9.60;2.50;;;;;;;22.52;48.02;99665.29;25052;1315;3053083;-62
2022/07/30 05:34:31;;;;;;;7.80;2.50;;;;;;;22.54;47.82;99666.14;25080;1315;3026258;-63
2022/07/30 05:37:01;;;;;;;10.20;2.80;;;;;;;22.54;48.17;99664.55;25030;1315;3028404;-63
2022/07/30 05:39:30;;;;;;;9.00;3.20;;;;;;;22.57;48.04;99664.02;25087;1315;3026638;-63
2022/07/30 05:42:42;;;;;;;11.30;2.70;;;;;;;22.60;48.26;99662.95;25045;1315;3071818;-63
2022/07/30 05:45:13;;;;;;;7.90;3.00;;;;;;;22.69;48.18;99661.14;25090;1315;3026311;-65
2022/07/30 05:47:42;;;;;;;9.60;2.60;;;;;;;22.76;47.43;99659.27;25041;1315;3026156;-63
2022/07/30 05:50:11;;;;;;;11.10;3.20;;;;;;;22.83;47.09;99655.52;25078;1315;3070912;-61
2022/07/30 05:52:41;;;;;;;10.80;2.70;;;;;;;22.87;46.73;99660.40;25122;1315;3027001;-62
2022/07/30 05:55:30;;;;;;;7.80;2.80;;;;;;;22.92;46.45;99657.52;25032;1315;3055189;-59
2022/07/30 05:58:13;;;;;;;10.60;2.90;;;;;;;22.99;46.26;99656.52;25117;1315;3051993;-63
2022/07/30 06:00:43;;;;;;;10.50;2.90;;;;;;;23.06;45.96;99660.45;25080;1315;3029141;-62
2022/07/30 06:03:13;;;;;;;11.00;2.60;;;;;;;23.16;45.84;99660.84;25048;1315;3027276;-62
2022/07/30 06:06:03;;;;;;;16.50;2.90;;;;;;;23.25;45.64;99660.71;25039;1315;3054453;-63
2022/07/30 06:08:32;;;;;;;5.80;2.70;;;;;;;23.31;45.77;99657.27;25028;1315;3026556;-61
2022/07/30 06:11:07;;;;;;;7.40;2.60;;;;;;;23.40;45.43;99657.86;25084;1315;3071105;-61
2022/07/30 06:13:38;;;;;;;4.40;2.30;;;;;;;23.51;44.82;99656.86;25048;1315;3026819;-63
2022/07/30 06:16:09;;;;;;;15.00;2.60;;;;;;;23.56;44.79;99654.09;25125;1315;3028529;-62
2022/07/30 06:18:43;;;;;;;8.50;2.60;;;;;;;23.69;44.77;99652.30;25071;1315;3054678;-63
2022/07/30 06:21:21;;;;;;;11.30;2.70;;;;;;;23.80;44.70;99660.84;25084;1315;3057784;-62
2022/07/30 06:24:06;;;;;;;13.40;2.70;;;;;;;23.87;44.23;99654.41;25065;1315;3050036;-63
2022/07/30 06:26:41;;;;;;;8.50;2.20;;;;;;;23.92;43.97;99653.11;25118;1315;3054055;-62
2022/07/30 06:29:10;;;;;;;6.30;2.90;;;;;;;23.99;44.18;99650.02;25119;1315;3026460;-64
2022/07/30 06:31:40;;;;;;;14.30;2.60;;;;;;;24.05;43.65;99645.77;25025;1315;3026719;-64
2022/07/30 06:34:11;;;;;;;5.70;2.30;;;;;;;24.14;43.56;99640.48;25090;1315;3053338;-62
2022/07/30 06:36:43;;;;;;;11.80;2.50;;;;;;;24.19;43.52;99638.80;25103;1315;3026993;-62
2022/07/30 06:39:22;;;;;;;11.10;2.40;;;;;;;24.31;43.16;99638.12;25047;1315;3068602;-63
2022/07/30 06:42:00;;;;;;;10.80;2.60;;;;;;;24.39;42.88;99639.71;25085;1315;3051896;-62
2022/07/30 06:44:32;;;;;;;9.10;2.50;;;;;;;24.44;42.95;99636.17;25075;1315;3026902;-63
2022/07/30 06:47:24;;;;;;;7.60;2.10;;;;;;;24.52;43.17;99632.09;25091;1315;3055495;-63
2022/07/30 06:49:55;;;;;;;7.60;2.10;;;;;;;24.60;42.39;99631.66;25047;1315;3058608;-66
2022/07/30 06:52:25;;;;;;;9.00;2.00;;;;;;;24.67;42.07;99634.23;25109;1315;3026521;-63
2022/07/30 06:54:55;;;;;;;5.50;2.10;;;;;;;24.76;42.27;99630.14;25102;1314;3026255;-64
2022/07/30 06:57:38;;;;;;;11.40;2.50;;;;;;;24.81;42.03;99627.11;25123;1314;3054425;-63
2022/07/30 07:00:10;;;;;;;9.50;2.30;;;;;;;24.86;41.63;99627.73;25007;1315;3026442;-64
2022/07/30 07:02:43;;;;;;;;;;;;;;;24.92;41.17;99624.06;25122;1316;3049326;-64
2022/07/30 07:05:14;;;;;;;11.10;2.10;;;;;;;24.94;40.83;99618.35;25068;1315;3026172;-63
2022/07/30 07:07:50;;;;;;;9.70;2.00;;;;;;;25.05;40.78;99622.33;25056;1315;3055660;-64
2022/07/30 07:10:20;;;;;;;8.90;2.20;;;;;;;25.15;40.98;99620.73;25083;1313;3026332;-64
2022/07/30 07:12:59;;;;;;;8.80;2.30;;;;;;;25.27;40.16;99623.43;25045;1316;3051145;-63
2022/07/30 07:15:29;;;;;;;7.80;2.00;;;;;;;25.33;39.97;99623.16;25127;1313;3026398;-64
2022/07/30 07:17:58;;;;;;;10.80;2.10;;;;;;;25.40;39.76;99617.96;25083;1313;3027288;-61
2022/07/30 07:20:40;;;;;;;4.50;1.90;;;;;;;25.45;39.24;99622.50;25076;1313;3069450;-65
2022/07/30 07:23:12;;;;;;;8.50;1.90;;;;;;;25.46;38.66;99618.46;25080;1312;3026469;-64
2022/07/30 07:25:42;;;;;;;9.90;1.80;;;;;;;25.55;38.45;99612.41;25121;1313;3026713;-65
2022/07/30 07:28:12;;;;;;;6.10;2.00;;;;;;;25.64;38.39;99612.42;25059;1313;3027876;-65
2022/07/30 07:30:43;;;;;;;4.50;1.60;;;;;;;25.74;38.08;99609.58;25061;1316;3026347;-66
2022/07/30 07:33:12;;;;;;;3.50;1.50;;;;;;;25.82;38.14;99609.70;25005;1316;3030149;-63
2022/07/30 07:35:41;;;;;;;9.50;1.60;;;;;;;25.87;37.28;99610.86;25097;1315;3055036;-63
2022/07/30 07:38:11;;;;;;;11.40;1.90;;;;;;;25.94;37.29;99610.88;25078;1313;3028912;-62
2022/07/30 07:40:42;;;;;;;5.10;1.80;;;;;;;26.03;37.26;99613.02;25101;1313;3026292;-63
2022/07/30 07:43:13;;;;;;;3.90;1.60;;;;;;;26.13;36.95;99611.03;25041;1316;3027120;-63
2022/07/30 07:45:46;;;;;;;8.20;1.70;;;;;;;26.17;35.77;99604.91;25069;1312;3055859;-62
2022/07/30 07:48:17;;;;;;;2.70;1.40;;;;;;;26.20;34.27;99608.66;25135;1313;3028919;-63
2022/07/30 07:51:12;;;;;;;3.50;1.50;;;;;;;26.28;33.93;99610.61;24999;1315;3054835;-64
2022/07/30 07:53:42;;;;;;;5.00;1.40;;;;;;;26.36;34.19;99613.75;25028;1315;3026425;-65
2022/07/30 07:56:12;;;;;;;3.50;1.20;;;;;;;26.49;34.26;99613.25;25097;1313;3026343;-63
2022/07/30 07:58:43;;;;;;;7.10;1.30;;;;;;;26.58;33.71;99610.52;25116;1315;3026721;-64
2022/07/30 08:01:13;;;;;;;12.30;1.40;;;;;;;26.61;33.41;99608.13;25072;1316;3026626;-65
2022/07/30 08:04:20;;;;;;;7.60;1.30;;;;;;;26.68;32.44;99612.30;25064;1313;3055781;-63
2022/07/30 08:07:21;;;;;;;5.00;1.80;;;;;;;26.75;32.46;99605.34;25046;1313;3058651;-63
2022/07/30 08:10:10;;;;;;;5.50;1.60;;;;;;;26.74;32.25;99612.83;25108;1313;3052173;-64
2022/07/30 08:12:57;;;;;;;7.50;1.30;;;;;;;26.80;32.18;99609.42;25052;1313;3055525;-63
2022/07/30 08:15:46;;;;;;;2.50;1.30;;;;;;;26.89;32.14;99605.85;25107;1313;3052985;-64
2022/07/30 08:18:39;;;;;;;4.90;1.30;;;;;;;26.96;32.07;99603.45;25049;1313;3071295;-64
2022/07/30 08:21:18;;;;;;;3.60;1.50;;;;;;;26.96;32.44;99609.88;25088;1313;3051435;-63
2022/07/30 08:23:47;;;;;;;3.50;1.40;;;;;;;27.13;32.46;99605.02;25077;1312;3026569;-66
2022/07/30 08:26:17;;;;;;;4.60;1.10;;;;;;;27.28;32.03;99598.79;25076;1315;3070834;-63
2022/07/30 08:28:47;;;;;;;3.20;1.30;;;;;;;27.34;31.93;99599.45;25075;1313;3026813;-63
2022/07/30 08:31:16;;;;;;;10.30;1.20;;;;;;;27.36;32.08;99595.49;25056;1313;3026325;-62
2022/07/30 08:33:49;;;;;;;;;;;;;;;27.39;31.53;99592.33;25056;1316;3068753;-62
2022/07/30 08:36:19;;;;;;;8.10;1.40;;;;;;;27.47;31.54;99589.20;25120;1313;3026109;-61
2022/07/30 08:38:48;;;;;;;4.20;1.30;;;;;;;27.62;31.15;99588.86;25082;1313;3053436;-64
2022/07/30 08:41:19;;;;;;;6.10;1.80;;;;;;;27.68;31.28;99583.77;25098;1313;3026636;-66
2022/07/30 08:43:49;;;;;;;17.00;1.50;;;;;;;27.76;31.10;99580.98;25059;1313;3026399;-63
2022/07/30 08:46:19;;;;;;;7.60;1.40;;;;;;;27.86;30.74;99581.52;25131;1313;3051738;-65
2022/07/30 08:49:02;;;;;;;3.70;1.10;;;;;;;27.96;30.67;99580.41;25050;1313;3070922;-61
2022/07/30 08:51:31;;;;;;;6.50;1.20;;;;;;;27.95;30.28;99575.18;25103;1313;3027004;-64
2022/07/30 08:54:24;;;;;;;7.90;1.10;;;;;;;27.91;30.38;99569.85;25010;1315;3054508;-65
2022/07/30 08:56:53;;;;;;;6.20;1.50;;;;;;;28.06;30.27;99570.85;25126;1315;3026637;-63
2022/07/30 08:59:22;;;;;;;6.30;1.40;;;;;;;28.17;29.80;99574.42;25080;1313;3055135;-65
2022/07/30 09:01:51;;;;;;;6.60;1.90;;;;;;;28.28;29.75;99568.25;25088;1313;3026555;-62
2022/07/30 09:04:22;;;;;;;5.40;1.30;;;;;;;28.30;30.10;99567.86;25068;1313;3051283;-62
2022/07/30 09:06:56;;;;;;;8.60;1.50;;;;;;;28.44;29.88;99574.27;25090;1313;3028213;-67
2022/07/30 09:09:25;;;;;;;2.80;1.30;;;;;;;28.53;29.75;99569.78;25135;1313;3027479;-63
2022/07/30 09:11:59;;;;;;;4.50;1.40;;;;;;;28.66;29.82;99566.30;25069;1313;3071668;-63
2022/07/30 09:14:31;;;;;;;7.40;1.40;;;;;;;28.68;29.05;99566.89;25072;1313;3027084;-64
2022/07/30 09:17:02;;;;;;;6.20;1.40;;;;;;;28.83;28.65;99567.09;25095;1313;3028126;-62
2022/07/30 09:19:33;;;;;;;7.30;1.20;;;;;;;28.91;28.58;99563.87;25128;1313;3028719;-63
2022/07/30 09:22:04;;;;;;;6.90;1.50;;;;;;;28.95;28.76;99559.99;25032;1315;3026565;-65
2022/07/30 09:24:56;;;;;;;7.20;1.70;;;;;;;29.11;28.47;99562.61;25034;1313;3051678;-63
2022/07/30 09:27:55;;;;;;;12.20;1.80;;;;;;;29.13;28.48;99562.52;24979;1319;3056141;-65
2022/07/30 09:30:47;;;;;;;4.20;1.60;;;;;;;28.95;28.82;99556.28;25143;1313;3052016;-65
2022/07/30 09:33:51;;;;;;;4.90;1.50;;;;;;;29.11;29.08;99557.38;24920;1322;3071989;-65
2022/07/30 09:36:43;;;;;;;6.00;1.80;;;;;;;29.27;29.14;99549.40;25092;1313;3052096;-63
2022/07/30 09:39:35;;;;;;;7.60;2.00;;;;;;;29.32;28.51;99551.34;25130;1313;3053961;-64
2022/07/30 09:42:24;;;;;;;9.40;2.00;;;;;;;29.46;28.73;99550.45;25087;1313;3055014;-65
2022/07/30 09:45:12;;;;;;;5.10;1.90;;;;;;;29.57;28.19;99553.57;25116;1313;3056745;-65
2022/07/30 09:47:47;;;;;;;4.60;2.50;;;;;;;29.76;27.48;99556.05;25047;1312;3049151;-65
2022/07/30 09:50:18;;;;;;;5.30;2.70;;;;;;;29.73;27.23;99554.11;25135;1313;3026351;-63
2022/07/30 09:52:49;;;;;;;3.70;2.10;;;;;;;29.79;27.11;99550.21;24724;1315;3468013;-63
2022/07/30 09:55:33;;;;;;;8.10;2.10;;;;;;;29.82;26.95;99554.70;25062;1313;3026768;-65
2022/07/30 09:58:05;;;;;;;3.80;2.20;;;;;;;30.00;26.94;99550.73;25035;1315;3048712;-64
2022/07/30 10:00:36;;;;;;;6.40;2.30;;;;;;;30.10;27.16;99545.95;25155;1313;3026689;-63
2022/07/30 10:03:18;;;;;;;8.50;2.80;;;;;;;30.20;26.98;99546.55;25111;1313;3052257;-65
2022/07/30 10:06:08;;;;;;;8.80;2.70;;;;;;;30.38;26.32;99547.41;25027;1313;3058659;-65
2022/07/30 10:08:39;;;;;;;9.30;2.80;;;;;;;30.51;26.53;99549.62;25074;1313;3026680;-65
2022/07/30 10:11:13;;;;;;;6.30;2.70;;;;;;;30.63;26.34;99544.76;25123;1313;3026785;-63
2022/07/30 10:13:54;;;;;;;9.00;2.90;;;;;;;30.66;26.84;99539.85;25045;1312;3052958;-64
2022/07/30 10:16:25;;;;;;;14.60;2.70;;;;;;;30.71;26.66;99536.71;25108;1313;3071261;-64
2022/07/30 10:18:58;;;;;;;11.70;2.70;;;;;;;30.77;26.23;99538.99;25132;1312;3026435;-63
2022/07/30 10:21:59;;;;;;;12.70;3.00;;;;;;;30.75;25.94;99545.81;25119;1313;3055335;-66
2022/07/30 10:24:53;;;;;;;4.60;2.60;;;;;;;30.76;25.72;99543.58;25121;1312;3053605;-66
2022/07/30 10:27:21;;;;;;;7.10;2.70;;;;;;;30.68;26.26;99535.95;25090;1315;3026175;-66
2022/07/30 10:30:05;;;;;;;9.30;2.50;;;;;;;30.64;26.35;99535.41;25070;1315;3054610;-67
2022/07/30 10:32:36;;;;;;;10.50;2.70;;;;;;;30.70;26.15;99536.77;25176;1313;3029331;-63
2022/07/30 10:35:06;;;;;;;7.30;2.40;;;;;;;30.73;26.24;99540.11;25110;1313;3026479;-62
2022/07/30 10:37:40;;;;;;;4.80;2.00;;;;;;;31.03;25.29;99538.78;25063;1313;3026361;-66
2022/07/30 10:40:39;;;;;;;9.00;2.40;;;;;;;31.17;25.16;99536.76;25076;1316;3056009;-63
2022/07/30 10:43:29;;;;;;;9.70;2.10;;;;;;;31.20;25.19;99534.30;25040;1313;3053969;-64
2022/07/30 10:46:34;;;;;;;8.60;1.80;;;;;;;31.21;25.52;99535.55;25040;1313;3068823;-62
2022/07/30 10:49:14;;;;;;;6.60;1.50;;;;;;;31.29;25.17;99533.82;25068;1315;3050451;-66
2022/07/30 10:51:48;;;;;;;10.20;1.80;;;;;;;31.32;24.99;99532.23;25064;1313;3055984;-64
2022/07/30 10:54:32;;;;;;;4.20;1.80;;;;;;;31.37;25.10;99523.90;25113;1313;3027142;-66
2022/07/30 10:57:12;;;;;;;9.00;2.20;;;;;;;31.22;25.69;99526.26;25098;1313;3059142;-64
2022/07/30 10:59:48;;;;;;;11.70;2.10;;;;;;;31.04;25.87;99528.98;25113;1313;3050174;-64
2022/07/30 11:02:18;;;;;;;9.10;2.30;;;;;;;31.09;25.62;99534.94;25151;1313;3051707;-64
2022/07/30 11:04:49;;;;;;;6.90;2.00;;;;;;;31.03;25.65;99531.77;25096;1315;3026816;-64
2022/07/30 11:07:22;;;;;;;4.00;1.90;;;;;;;31.09;25.69;99536.25;25117;1313;3069138;-64
2022/07/30 11:09:57;;;;;;;8.70;2.00;;;;;;;31.15;25.33;99530.27;25072;1313;3026350;-62
2022/07/30 11:12:42;;;;;;;10.00;2.20;;;;;;;31.01;25.88;99521.40;25130;1313;3027541;-63
2022/07/30 11:15:16;;;;;;;7.40;2.10;;;;;;;30.99;26.13;99524.97;25038;1313;3054991;-64
2022/07/30 11:17:57;;;;;;;3.90;1.80;;;;;;;31.29;25.14;99534.98;25096;1313;3027185;-64
2022/07/30 11:20:28;;;;;;;3.20;1.90;;;;;;;31.01;25.00;99534.80;25082;1312;3052527;-64
2022/07/30 11:23:18;;;;;;;9.10;2.40;;;;;;;30.99;25.01;99529.88;25065;1312;3026333;-65
2022/07/30 11:25:50;;;;;;;4.10;1.80;;;;;;;31.14;24.51;99530.54;25065;1312;3052877;-63
2022/07/30 11:28:39;;;;;;;3.90;1.50;;;;;;;31.35;24.50;99526.73;25120;1313;3026474;-64
2022/07/30 11:31:31;;;;;;;8.40;2.00;;;;;;;31.29;24.75;99526.77;25113;1313;3053413;-64
2022/07/30 11:34:19;;;;;;;15.20;2.40;;;;;;;31.37;24.69;99529.13;25186;1313;3054375;-64
2022/07/30 11:37:11;;;;;;;7.30;2.10;;;;;;;31.38;24.48;99529.52;25059;1313;3070941;-65
2022/07/30 11:39:52;;;;;;;5.20;1.90;;;;;;;31.29;24.37;99531.94;25092;1313;3052114;-66
2022/07/30 11:42:32;;;;;;;5.70;2.10;;;;;;;31.40;24.35;99531.71;25081;1313;3055521;-64
2022/07/30 11:45:14;;;;;;;4.60;2.50;;;;;;;31.42;24.23;99529.77;25079;1313;3053257;-67
2022/07/30 11:47:48;;;;;;;8.10;2.10;;;;;;;31.40;24.62;99527.95;25052;1313;3056562;-68
2022/07/30 11:50:23;;;;;;;4.80;1.70;;;;;;;31.66;24.08;99526.55;25059;1313;3049291;-67
2022/07/30 11:53:09;;;;;;;10.00;2.40;;;;;;;31.75;24.06;99525.00;25025;1313;3052976;-64
2022/07/30 11:55:44;;;;;;;3.70;1.80;;;;;;;31.81;24.11;99520.27;25111;1313;3050400;-65